Time;durP1;ratioP1;P1;durP2;ratioP2;P2;SDS_P1;SDS_P2;PMS_P1;PMS_P2;Temp;Humidity;BMP_temperature;BMP_pressure;BME280_temperature;BME280_humidity;BME280_pressure;Samples;Min_cycle;Max_cycle;Signal;HPM_P1;HPM_P2
2022/06/27 00:00:55;;;;;;;10.17;7.17;;;;;;;;;;5229853;28;20034;-71
2022/06/27 00:03:26;;;;;;;12.50;6.97;;;;;;;;;;5227844;28;20095;-71
2022/06/27 00:05:57;;;;;;;8.27;6.97;;;;;;;;;;5230735;28;20079;-71
2022/06/27 00:08:28;;;;;;;10.63;8.47;;;;;;;;;;5231671;28;20068;-71
2022/06/27 00:11:00;;;;;;;10.30;8.40;;;;;;;;;;5216535;28;20610;-71
2022/06/27 00:13:31;;;;;;;9.20;7.93;;;;;;;;;;5211700;28;20036;-70
2022/06/27 00:16:02;;;;;;;10.87;7.50;;;;;;;;;;5210763;28;20034;-70
2022/06/27 00:18:33;;;;;;;10.03;8.20;;;;;;;;;;5223047;28;20144;-70
2022/06/27 00:21:06;;;;;;;11.67;8.20;;;;;;;;;;5209601;28;20053;-70
2022/06/27 00:23:37;;;;;;;9.80;7.77;;;;;;;;;;5221097;28;20411;-70
2022/06/27 00:26:08;;;;;;;10.50;7.23;;;;;;;;;;5230476;28;20025;-70
2022/06/27 00:28:39;;;;;;;10.60;8.97;;;;;;;;;;5231199;28;20100;-70
2022/06/27 00:31:11;;;;;;;14.53;8.37;;;;;;;;;;5230988;28;20021;-70
2022/06/27 00:33:42;;;;;;;9.53;7.73;;;;;;;;;;5219946;28;20021;-70
2022/06/27 00:36:13;;;;;;;12.50;7.93;;;;;;;;;;5229948;28;20103;-70
2022/06/27 00:38:44;;;;;;;11.47;8.20;;;;;;;;;;5211248;28;20026;-70
2022/06/27 00:41:15;;;;;;;11.93;7.97;;;;;;;;;;5225022;28;20129;-70
2022/06/27 00:43:47;;;;;;;12.23;7.60;;;;;;;;;;5243578;28;20025;-70
2022/06/27 00:46:18;;;;;;;12.73;8.17;;;;;;;;;;5230534;28;20024;-70
2022/06/27 00:48:49;;;;;;;10.37;8.87;;;;;;;;;;5244313;28;20014;-70
2022/06/27 00:51:20;;;;;;;10.30;9.03;;;;;;;;;;5210536;28;20432;-70
2022/06/27 00:53:52;;;;;;;10.77;9.07;;;;;;;;;;5210680;28;20084;-70
2022/06/27 00:56:23;;;;;;;13.50;10.30;;;;;;;;;;5210163;28;20506;-70
2022/06/27 00:58:55;;;;;;;11.17;8.80;;;;;;;;;;5209234;28;20091;-71
2022/06/27 01:01:26;;;;;;;13.40;9.17;;;;;;;;;;5209618;28;20072;-71
2022/06/27 01:04:00;;;;;;;14.43;8.27;;;;;;;;;;5218590;28;20044;-71
2022/06/27 01:06:31;;;;;;;12.77;8.93;;;;;;;;;;5211724;28;20029;-70
2022/06/27 01:09:03;;;;;;;10.37;8.93;;;;;;;;;;5230773;28;20028;-70
2022/06/27 01:11:34;;;;;;;11.50;8.47;;;;;;;;;;5228885;28;20068;-70
2022/06/27 01:14:05;;;;;;;11.33;9.17;;;;;;;;;;5243941;28;20056;-70
2022/06/27 01:16:37;;;;;;;12.30;8.23;;;;;;;;;;5229380;28;20475;-71
2022/06/27 01:19:10;;;;;;;9.53;7.83;;;;;;;;;;5228652;28;20052;-70
2022/06/27 01:21:51;;;;;;;11.23;7.93;;;;;;;;;;5212319;28;20028;-70
2022/06/27 01:24:24;;;;;;;13.93;9.57;;;;;;;;;;5227391;28;20112;-70
2022/06/27 01:26:55;;;;;;;9.40;7.97;;;;;;;;;;5208978;28;20107;-71
2022/06/27 01:29:27;;;;;;;9.77;8.00;;;;;;;;;;5222351;28;20484;-71
2022/06/27 01:31:58;;;;;;;13.50;9.37;;;;;;;;;;5224603;28;20021;-70
2022/06/27 01:34:29;;;;;;;11.53;8.77;;;;;;;;;;5209314;28;20022;-70
2022/06/27 01:37:01;;;;;;;11.20;8.03;;;;;;;;;;5210128;28;20033;-71
2022/06/27 01:39:32;;;;;;;10.20;7.57;;;;;;;;;;5220928;28;20018;-70
2022/06/27 01:42:04;;;;;;;9.43;7.70;;;;;;;;;;5230139;28;20075;-70
2022/06/27 01:44:35;;;;;;;10.83;8.63;;;;;;;;;;5245449;28;20021;-70
2022/06/27 01:47:08;;;;;;;11.53;8.47;;;;;;;;;;5241984;28;20024;-70
2022/06/27 01:49:39;;;;;;;9.43;7.67;;;;;;;;;;5220161;28;20026;-70
2022/06/27 01:52:12;;;;;;;14.33;7.53;;;;;;;;;;5228903;28;20528;-71
2022/06/27 01:54:43;;;;;;;9.13;7.10;;;;;;;;;;5228382;28;20057;-70
2022/06/27 01:57:16;;;;;;;8.73;7.17;;;;;;;;;;5229205;28;20141;-71
2022/06/27 01:59:48;;;;;;;11.23;8.37;;;;;;;;;;5229830;28;20028;-71
2022/06/27 02:02:20;;;;;;;11.17;8.03;;;;;;;;;;5222623;28;20455;-70
2022/06/27 02:04:52;;;;;;;11.33;7.90;;;;;;;;;;5211527;28;20036;-71
2022/06/27 02:07:23;;;;;;;10.17;8.23;;;;;;;;;;5244872;28;20014;-70
2022/06/27 02:09:54;;;;;;;12.17;8.80;;;;;;;;;;5228583;28;20010;-72
2022/06/27 02:12:28;;;;;;;13.97;8.80;;;;;;;;;;5220377;28;20038;-71
2022/06/27 02:14:59;;;;;;;13.73;8.45;;;;;;;;;;5208390;28;20037;-70
2022/06/27 02:17:31;;;;;;;13.13;9.17;;;;;;;;;;5223717;28;20026;-70
2022/06/27 02:20:03;;;;;;;11.27;8.33;;;;;;;;;;5211966;28;20585;-70
2022/06/27 02:22:34;;;;;;;11.30;8.07;;;;;;;;;;5228871;28;20116;-70
2022/06/27 02:25:05;;;;;;;12.53;9.00;;;;;;;;;;5244391;28;21050;-70
2022/06/27 02:27:38;;;;;;;15.63;8.50;;;;;;;;;;5228788;28;20041;-70
2022/06/27 02:30:09;;;;;;;13.73;8.77;;;;;;;;;;5238064;28;20381;-70
2022/06/27 02:32:41;;;;;;;16.33;8.57;;;;;;;;;;5228840;28;20023;-71
2022/06/27 02:35:13;;;;;;;12.83;8.43;;;;;;;;;;5236938;28;20135;-71
2022/06/27 02:37:44;;;;;;;10.47;9.10;;;;;;;;;;5208799;28;20413;-71
2022/06/27 02:40:16;;;;;;;10.80;9.20;;;;;;;;;;5208101;28;20019;-70
2022/06/27 02:42:49;;;;;;;10.90;9.30;;;;;;;;;;5208750;28;20021;-70
2022/06/27 02:45:21;;;;;;;11.43;9.30;;;;;;;;;;5208551;28;20632;-70
2022/06/27 02:47:54;;;;;;;12.97;9.23;;;;;;;;;;5209509;28;20030;-70
2022/06/27 02:50:26;;;;;;;13.97;8.87;;;;;;;;;;5208580;28;20061;-71
2022/06/27 02:52:59;;;;;;;11.27;8.80;;;;;;;;;;5228892;28;20089;-71
2022/06/27 02:55:38;;;;;;;10.20;8.73;;;;;;;;;;5228850;28;20491;-70
2022/06/27 02:58:12;;;;;;;12.17;9.03;;;;;;;;;;5243150;28;20092;-70
2022/06/27 03:00:44;;;;;;;11.63;9.65;;;;;;;;;;5229455;28;20017;-70
2022/06/27 03:03:16;;;;;;;16.13;10.40;;;;;;;;;;5241300;28;20115;-70
2022/06/27 03:05:53;;;;;;;13.57;9.17;;;;;;;;;;5227588;28;20391;-70
2022/06/27 03:08:25;;;;;;;11.20;8.77;;;;;;;;;;5211196;28;20029;-71
2022/06/27 03:10:56;;;;;;;13.67;9.63;;;;;;;;;;5207414;28;20046;-71
2022/06/27 03:13:27;;;;;;;11.70;8.90;;;;;;;;;;5212375;28;20026;-71
2022/06/27 03:15:59;;;;;;;15.33;10.47;;;;;;;;;;5209223;28;20544;-71
2022/06/27 03:18:30;;;;;;;11.23;9.27;;;;;;;;;;5225080;28;20069;-70
2022/06/27 03:21:01;;;;;;;14.77;9.40;;;;;;;;;;5216161;28;20044;-70
2022/06/27 03:23:33;;;;;;;13.90;10.03;;;;;;;;;;5221230;28;20068;-70
2022/06/27 03:26:04;;;;;;;15.07;9.77;;;;;;;;;;5228137;28;20538;-71
2022/06/27 03:28:35;;;;;;;11.40;10.07;;;;;;;;;;5243257;28;20120;-70
2022/06/27 03:31:07;;;;;;;10.83;9.03;;;;;;;;;;5227572;28;20022;-70
2022/06/27 03:33:38;;;;;;;10.53;9.43;;;;;;;;;;5209400;28;20026;-72
2022/06/27 03:36:10;;;;;;;13.37;10.20;;;;;;;;;;5222565;28;20037;-71
2022/06/27 03:38:41;;;;;;;11.53;9.90;;;;;;;;;;5234448;28;20052;-70
2022/06/27 03:41:12;;;;;;;13.30;9.37;;;;;;;;;;5231628;28;20037;-70
2022/06/27 03:43:43;;;;;;;14.23;9.40;;;;;;;;;;5213364;28;20189;-70
2022/06/27 03:46:14;;;;;;;14.83;10.47;;;;;;;;;;5223235;28;20049;-70
2022/06/27 03:51:35;;;;;;;13.07;11.07;;;;;;;;;;5224909;28;20034;-71
2022/06/27 03:54:06;;;;;;;12.33;10.57;;;;;;;;;;5216404;28;20034;-70
2022/06/27 03:56:38;;;;;;;13.07;10.97;;;;;;;;;;5213624;28;20026;-70
2022/06/27 03:59:09;;;;;;;12.13;10.27;;;;;;;;;;5211055;28;20060;-70
2022/06/27 04:01:40;;;;;;;12.70;9.83;;;;;;;;;;5236357;28;20013;-70
2022/06/27 04:04:12;;;;;;;11.30;10.17;;;;;;;;;;5225122;28;20026;-71
2022/06/27 04:06:43;;;;;;;11.00;9.90;;;;;;;;;;5227525;28;20826;-71
2022/06/27 04:09:14;;;;;;;12.87;10.03;;;;;;;;;;5231228;28;20029;-71
2022/06/27 04:11:45;;;;;;;12.25;10.02;;;;;;;;;;5230084;28;20049;-71
2022/06/27 04:14:17;;;;;;;13.48;10.13;;;;;;;;;;5231858;28;20029;-71
2022/06/27 04:16:48;;;;;;;15.13;10.63;;;;;;;;;;5231444;28;20065;-72
2022/06/27 04:19:20;;;;;;;13.53;10.67;;;;;;;;;;5210000;28;20022;-71
2022/06/27 04:21:51;;;;;;;15.40;11.17;;;;;;;;;;5227358;28;20413;-71
2022/06/27 04:24:22;;;;;;;15.05;11.15;;;;;;;;;;5224773;28;20041;-71
2022/06/27 04:26:53;;;;;;;12.97;11.13;;;;;;;;;;5229641;28;20092;-71
2022/06/27 04:29:26;;;;;;;12.77;11.10;;;;;;;;;;5230268;28;20018;-72
2022/06/27 04:31:57;;;;;;;15.47;11.43;;;;;;;;;;5215438;28;20072;-72
2022/06/27 04:34:29;;;;;;;12.43;11.10;;;;;;;;;;5209336;28;20017;-72
2022/06/27 04:37:00;;;;;;;15.23;12.30;;;;;;;;;;5210338;28;20110;-72
2022/06/27 04:39:31;;;;;;;15.53;11.83;;;;;;;;;;5212052;28;20022;-71
2022/06/27 04:42:03;;;;;;;11.93;10.73;;;;;;;;;;5210448;28;20040;-71
2022/06/27 04:44:35;;;;;;;15.13;12.27;;;;;;;;;;5210897;28;20037;-71
2022/06/27 04:47:07;;;;;;;13.57;12.13;;;;;;;;;;5215200;28;20100;-71
2022/06/27 04:49:38;;;;;;;14.43;12.93;;;;;;;;;;5230460;28;20021;-71
2022/06/27 04:52:11;;;;;;;15.00;13.50;;;;;;;;;;5244224;28;20163;-71
2022/06/27 04:54:43;;;;;;;17.97;13.70;;;;;;;;;;5231095;28;20499;-71
2022/06/27 04:57:14;;;;;;;20.97;14.47;;;;;;;;;;5210780;28;20355;-72
2022/06/27 04:59:45;;;;;;;20.03;14.33;;;;;;;;;;5225195;28;20017;-71
2022/06/27 05:02:16;;;;;;;19.93;15.03;;;;;;;;;;5217056;28;20022;-71
2022/06/27 05:04:48;;;;;;;16.97;14.60;;;;;;;;;;5229969;28;20032;-71
2022/06/27 05:07:19;;;;;;;16.60;14.77;;;;;;;;;;5223470;28;21471;-71
2022/06/27 05:09:53;;;;;;;17.70;15.70;;;;;;;;;;5210341;28;20098;-71
2022/06/27 05:12:25;;;;;;;18.02;15.15;;;;;;;;;;5209446;28;20057;-71
2022/06/27 05:14:56;;;;;;;21.70;15.97;;;;;;;;;;5209927;28;20037;-71
2022/06/27 05:17:27;;;;;;;17.70;15.80;;;;;;;;;;5218167;28;20029;-71
2022/06/27 05:19:58;;;;;;;17.70;15.30;;;;;;;;;;5229110;28;20017;-71
2022/06/27 05:22:30;;;;;;;18.13;16.33;;;;;;;;;;5228995;28;20021;-71
2022/06/27 05:25:01;;;;;;;19.03;17.07;;;;;;;;;;5223390;28;20025;-71
2022/06/27 05:27:34;;;;;;;20.00;16.07;;;;;;;;;;5210121;28;20719;-71
2022/06/27 05:30:05;;;;;;;18.10;16.23;;;;;;;;;;5215077;28;20097;-71
2022/06/27 05:32:36;;;;;;;18.73;16.90;;;;;;;;;;5217793;28;20026;-72
2022/06/27 05:35:08;;;;;;;21.00;16.13;;;;;;;;;;5212698;28;20036;-71
2022/06/27 05:37:40;;;;;;;21.10;16.70;;;;;;;;;;5208908;28;20037;-71
2022/06/27 05:40:11;;;;;;;20.30;16.97;;;;;;;;;;5221695;28;20049;-70
2022/06/27 05:42:43;;;;;;;17.83;16.03;;;;;;;;;;5215311;28;20022;-70
2022/06/27 05:45:15;;;;;;;19.13;16.77;;;;;;;;;;5228646;28;20025;-70
2022/06/27 05:47:46;;;;;;;20.00;16.60;;;;;;;;;;5243076;28;20052;-70
2022/06/27 05:50:17;;;;;;;18.60;16.23;;;;;;;;;;5224528;28;20044;-70
2022/06/27 05:52:49;;;;;;;18.00;16.30;;;;;;;;;;5227820;28;20056;-70
2022/06/27 05:55:21;;;;;;;18.23;16.43;;;;;;;;;;5228547;28;20037;-70
2022/06/27 05:57:54;;;;;;;18.47;15.17;;;;;;;;;;5225444;28;20029;-71
2022/06/27 06:00:25;;;;;;;18.37;16.37;;;;;;;;;;5229057;28;20030;-71
2022/06/27 06:02:58;;;;;;;20.60;16.33;;;;;;;;;;5219362;28;20021;-71
2022/06/27 06:05:29;;;;;;;17.97;15.50;;;;;;;;;;5219567;28;20108;-71
2022/06/27 06:08:02;;;;;;;18.67;15.90;;;;;;;;;;5231565;28;20070;-71
2022/06/27 06:10:33;;;;;;;18.37;16.43;;;;;;;;;;5227551;28;20029;-72
2022/06/27 06:13:04;;;;;;;20.17;17.67;;;;;;;;;;5226299;28;20537;-72
2022/06/27 06:15:38;;;;;;;19.13;17.13;;;;;;;;;;5228078;28;20033;-73
2022/06/27 06:18:09;;;;;;;19.63;17.63;;;;;;;;;;5224769;28;20022;-73
2022/06/27 06:20:40;;;;;;;18.67;16.73;;;;;;;;;;5224565;28;20597;-73
2022/06/27 06:23:12;;;;;;;18.67;16.67;;;;;;;;;;5226107;28;20022;-73
2022/06/27 06:25:43;;;;;;;17.97;16.07;;;;;;;;;;5226852;28;20044;-73
2022/06/27 06:28:15;;;;;;;18.57;16.80;;;;;;;;;;5226878;28;20974;-72
2022/06/27 06:30:47;;;;;;;19.23;16.10;;;;;;;;;;5224755;28;20025;-72
2022/06/27 06:33:18;;;;;;;19.03;17.17;;;;;;;;;;5220997;28;20025;-72
2022/06/27 06:35:49;;;;;;;19.90;16.27;;;;;;;;;;5220823;28;20026;-72
2022/06/27 06:38:20;;;;;;;19.97;17.10;;;;;;;;;;5227218;28;20075;-72
2022/06/27 06:40:52;;;;;;;19.03;16.73;;;;;;;;;;5218150;28;20044;-72
2022/06/27 06:43:23;;;;;;;20.30;16.30;;;;;;;;;;5216542;28;20022;-72
2022/06/27 06:45:54;;;;;;;18.60;16.60;;;;;;;;;;5219972;28;20025;-72
2022/06/27 06:48:26;;;;;;;21.13;18.50;;;;;;;;;;5215306;28;20072;-72
2022/06/27 06:50:57;;;;;;;20.30;16.03;;;;;;;;;;5218011;28;20461;-73
2022/06/27 06:53:28;;;;;;;19.07;15.77;;;;;;;;;;5238363;28;20457;-73
2022/06/27 06:55:59;;;;;;;23.27;15.80;;;;;;;;;;5215373;28;20025;-72
2022/06/27 06:58:31;;;;;;;20.03;16.17;;;;;;;;;;5214255;28;20030;-73
2022/06/27 07:01:02;;;;;;;19.27;16.23;;;;;;;;;;5232879;28;20040;-72
2022/06/27 07:03:34;;;;;;;18.43;15.77;;;;;;;;;;5210985;28;20409;-73
2022/06/27 07:06:06;;;;;;;18.97;15.57;;;;;;;;;;5221063;28;20041;-73
2022/06/27 07:08:39;;;;;;;19.00;15.63;;;;;;;;;;5218669;28;20025;-73
2022/06/27 07:11:11;;;;;;;17.03;15.27;;;;;;;;;;5218470;28;21868;-74
2022/06/27 07:13:42;;;;;;;19.03;14.03;;;;;;;;;;5215346;28;20056;-73
2022/06/27 07:16:15;;;;;;;16.97;15.13;;;;;;;;;;5221925;28;20404;-75
2022/06/27 07:18:46;;;;;;;17.80;15.33;;;;;;;;;;5224245;28;20358;-75
2022/06/27 07:21:21;;;;;;;18.77;14.87;;;;;;;;;;5218496;28;20025;-73
2022/06/27 07:23:53;;;;;;;19.93;15.07;;;;;;;;;;5213771;28;20072;-73
2022/06/27 07:26:27;;;;;;;19.97;15.23;;;;;;;;;;5230375;28;20497;-72
2022/06/27 07:29:00;;;;;;;23.20;16.23;;;;;;;;;;5218636;28;20056;-73
2022/06/27 07:31:31;;;;;;;18.97;15.37;;;;;;;;;;5231733;28;20025;-73
2022/06/27 07:34:08;;;;;;;21.40;15.83;;;;;;;;;;5229802;28;20033;-73
2022/06/27 07:36:39;;;;;;;16.80;14.87;;;;;;;;;;5226819;28;20486;-73
2022/06/27 07:39:10;;;;;;;18.43;13.50;;;;;;;;;;5231350;28;20025;-73
2022/06/27 07:41:42;;;;;;;15.88;12.34;;;;;;;;;;5229182;28;20013;-72
2022/06/27 07:44:13;;;;;;;18.37;12.83;;;;;;;;;;5246035;28;20033;-72
2022/06/27 07:46:44;;;;;;;15.23;12.53;;;;;;;;;;5227317;28;20398;-73
2022/06/27 07:49:15;;;;;;;15.53;12.33;;;;;;;;;;5228837;28;20020;-73
2022/06/27 07:51:47;;;;;;;15.60;11.93;;;;;;;;;;5231368;28;20018;-73
2022/06/27 07:54:19;;;;;;;15.43;12.97;;;;;;;;;;5230975;28;20063;-73
2022/06/27 07:56:51;;;;;;;16.40;11.23;;;;;;;;;;5227762;28;20029;-73
2022/06/27 07:59:22;;;;;;;13.90;10.63;;;;;;;;;;5230618;28;20420;-72
2022/06/27 08:01:53;;;;;;;14.10;10.70;;;;;;;;;;5230985;28;20017;-72
2022/06/27 08:04:25;;;;;;;11.50;9.60;;;;;;;;;;5229425;28;20368;-72
2022/06/27 08:06:56;;;;;;;16.23;9.30;;;;;;;;;;5226825;28;20033;-73
2022/06/27 08:09:29;;;;;;;9.73;8.80;;;;;;;;;;5245958;28;20424;-72
2022/06/27 08:12:01;;;;;;;17.77;8.70;;;;;;;;;;5244456;28;20045;-72
2022/06/27 08:14:33;;;;;;;10.53;7.63;;;;;;;;;;5229299;28;20120;-73
2022/06/27 08:17:04;;;;;;;11.27;8.40;;;;;;;;;;5226572;28;20583;-73
2022/06/27 08:19:36;;;;;;;14.00;7.30;;;;;;;;;;5229387;28;20662;-73
2022/06/27 08:22:08;;;;;;;10.37;7.50;;;;;;;;;;5245630;28;20385;-75
2022/06/27 08:24:39;;;;;;;11.93;7.73;;;;;;;;;;5245313;28;20524;-74
2022/06/27 08:27:11;;;;;;;10.47;7.70;;;;;;;;;;5225209;28;20029;-76
2022/06/27 08:29:43;;;;;;;10.37;7.57;;;;;;;;;;5228953;28;20037;-76
2022/06/27 08:32:15;;;;;;;8.97;7.47;;;;;;;;;;5229757;28;20072;-73
2022/06/27 08:34:47;;;;;;;8.67;7.13;;;;;;;;;;5245015;28;20093;-73
2022/06/27 08:37:19;;;;;;;10.27;7.23;;;;;;;;;;5223623;28;20087;-73
2022/06/27 08:39:50;;;;;;;10.73;7.40;;;;;;;;;;5229696;28;20017;-73
2022/06/27 08:42:21;;;;;;;12.50;8.10;;;;;;;;;;5228671;28;20032;-72
2022/06/27 08:44:52;;;;;;;10.57;8.17;;;;;;;;;;5225109;28;20021;-73
2022/06/27 08:47:24;;;;;;;10.90;8.10;;;;;;;;;;5225705;28;20464;-72
2022/06/27 08:49:55;;;;;;;9.03;8.13;;;;;;;;;;5225707;28;20029;-73
2022/06/27 08:52:28;;;;;;;12.57;8.30;;;;;;;;;;5230332;28;20013;-73
2022/06/27 08:55:01;;;;;;;10.40;7.53;;;;;;;;;;5228483;28;20476;-73
2022/06/27 08:57:33;;;;;;;12.97;8.23;;;;;;;;;;5226161;28;20029;-72
2022/06/27 09:00:06;;;;;;;10.23;7.40;;;;;;;;;;5229818;28;20104;-73
2022/06/27 09:02:42;;;;;;;12.77;8.43;;;;;;;;;;5227745;28;20051;-73
2022/06/27 09:05:21;;;;;;;11.33;7.23;;;;;;;;;;5241990;28;20882;-73
2022/06/27 09:07:56;;;;;;;10.03;7.70;;;;;;;;;;5224039;28;20024;-74
2022/06/27 09:10:30;;;;;;;10.23;7.47;;;;;;;;;;5235281;28;20028;-73
2022/06/27 09:13:03;;;;;;;10.52;7.95;;;;;;;;;;5242472;28;20180;-74
2022/06/27 09:15:38;;;;;;;10.20;6.70;;;;;;;;;;5226170;28;20026;-74
2022/06/27 09:18:09;;;;;;;9.48;6.93;;;;;;;;;;5237841;28;20272;-74
2022/06/27 09:20:51;;;;;;;10.96;6.64;;;;;;;;;;5227590;28;20022;-74
2022/06/27 09:23:31;;;;;;;8.73;6.13;;;;;;;;;;5224803;28;20017;-73
2022/06/27 09:26:05;;;;;;;9.63;6.75;;;;;;;;;;5241333;28;20087;-72
2022/06/27 09:28:41;;;;;;;10.98;5.78;;;;;;;;;;5227787;28;20127;-71
2022/06/27 09:31:30;;;;;;;8.63;6.05;;;;;;;;;;5228445;28;20112;-72
2022/06/27 09:34:14;;;;;;;8.38;6.05;;;;;;;;;;5227079;28;20026;-73
2022/06/27 09:37:01;;;;;;;10.32;6.25;;;;;;;;;;5226133;28;20033;-73
2022/06/27 09:39:34;;;;;;;9.38;6.20;;;;;;;;;;5222900;28;20017;-72
2022/06/27 09:42:06;;;;;;;10.20;5.80;;;;;;;;;;5228965;28;20057;-73
2022/06/27 09:44:39;;;;;;;10.15;6.22;;;;;;;;;;5227524;28;20029;-73
2022/06/27 09:47:11;;;;;;;5.93;4.90;;;;;;;;;;5225073;28;20579;-73
2022/06/27 09:49:44;;;;;;;11.70;5.53;;;;;;;;;;5227007;28;20749;-72
2022/06/27 09:52:17;;;;;;;8.03;5.97;;;;;;;;;;5228607;28;20388;-72
2022/06/27 09:54:49;;;;;;;14.25;5.47;;;;;;;;;;5229153;28;20136;-72
2022/06/27 09:57:21;;;;;;;10.48;5.00;;;;;;;;;;5223515;28;20086;-72
2022/06/27 09:59:53;;;;;;;8.82;6.07;;;;;;;;;;5227534;28;20092;-71
2022/06/27 10:02:24;;;;;;;9.15;5.25;;;;;;;;;;5240280;28;20053;-70
2022/06/27 10:04:56;;;;;;;7.00;4.28;;;;;;;;;;5226381;28;20693;-71
2022/06/27 10:07:27;;;;;;;8.80;4.53;;;;;;;;;;5223606;28;20029;-72
2022/06/27 10:09:58;;;;;;;6.15;4.55;;;;;;;;;;5228588;28;20015;-74
2022/06/27 10:12:36;;;;;;;12.18;6.55;;;;;;;;;;5228353;28;20136;-75
2022/06/27 10:15:10;;;;;;;11.35;5.72;;;;;;;;;;5226986;28;20025;-73
2022/06/27 10:17:51;;;;;;;9.88;5.20;;;;;;;;;;5224946;28;20036;-70
2022/06/27 10:20:32;;;;;;;7.75;4.20;;;;;;;;;;5226711;28;20021;-70
2022/06/27 10:23:03;;;;;;;6.97;4.65;;;;;;;;;;5224992;28;20025;-74
2022/06/27 10:25:44;;;;;;;9.02;4.93;;;;;;;;;;5224968;28;20432;-75
2022/06/27 10:28:16;;;;;;;8.75;4.13;;;;;;;;;;5221804;28;20112;-74
2022/06/27 10:30:48;;;;;;;8.82;4.82;;;;;;;;;;5223577;28;20116;-74
2022/06/27 10:33:26;;;;;;;7.30;4.05;;;;;;;;;;5240137;28;20025;-74
2022/06/27 10:38:30;;;;;;;9.48;3.90;;;;;;;;;;5224219;28;20124;-76
2022/06/27 10:41:02;;;;;;;6.05;3.28;;;;;;;;;;5225993;28;20381;-83
2022/06/27 10:43:45;;;;;;;9.98;3.55;;;;;;;;;;5226477;28;20018;-84
2022/06/27 10:46:16;;;;;;;9.65;2.92;;;;;;;;;;5225562;28;20049;-84
2022/06/27 10:48:49;;;;;;;7.78;3.04;;;;;;;;;;5226292;28;20552;-72
2022/06/27 10:51:24;;;;;;;4.43;2.22;;;;;;;;;;5226950;28;20079;-81
2022/06/27 10:53:59;;;;;;;9.95;3.22;;;;;;;;;;5241894;28;20029;-72
2022/06/27 10:56:44;;;;;;;8.57;3.47;;;;;;;;;;5228513;28;20045;-73
2022/06/27 10:59:15;;;;;;;9.63;3.28;;;;;;;;;;5224810;28;20017;-73
2022/06/27 11:01:49;;;;;;;6.32;3.60;;;;;;;;;;5226545;28;20063;-72
2022/06/27 11:04:24;;;;;;;13.77;4.38;;;;;;;;;;5221629;28;20586;-73
2022/06/27 11:06:56;;;;;;;8.32;4.22;;;;;;;;;;5237916;28;20032;-73
2022/06/27 11:09:34;;;;;;;7.93;4.82;;;;;;;;;;5225942;28;20022;-76
2022/06/27 11:12:06;;;;;;;8.52;3.50;;;;;;;;;;5224881;28;20049;-76
2022/06/27 11:14:47;;;;;;;8.20;3.55;;;;;;;;;;5240809;28;20025;-75
2022/06/27 11:17:33;;;;;;;9.30;3.58;;;;;;;;;;5223500;28;20101;-76
2022/06/27 11:20:12;;;;;;;6.53;3.13;;;;;;;;;;5239017;28;20033;-76
2022/06/27 11:22:44;;;;;;;6.30;2.88;;;;;;;;;;5226023;28;20017;-76
2022/06/27 11:25:18;;;;;;;6.15;2.88;;;;;;;;;;5225713;28;20210;-74
2022/06/27 11:27:53;;;;;;;7.30;3.13;;;;;;;;;;5222296;28;20014;-75
2022/06/27 11:33:17;;;;;;;8.55;3.58;;;;;;;;;;5226437;28;20029;-75
2022/06/27 11:35:49;;;;;;;7.25;3.67;;;;;;;;;;5228543;28;20080;-75
2022/06/27 11:38:25;;;;;;;8.75;3.90;;;;;;;;;;5225927;28;20025;-75
2022/06/27 11:41:00;;;;;;;11.00;4.00;;;;;;;;;;5223094;28;20084;-73
2022/06/27 11:43:44;;;;;;;10.10;4.47;;;;;;;;;;5238822;28;20044;-75
2022/06/27 11:46:22;;;;;;;16.52;5.75;;;;;;;;;;5217829;28;20025;-75
2022/06/27 11:48:56;;;;;;;10.10;5.43;;;;;;;;;;5229981;28;20036;-75
2022/06/27 11:51:32;;;;;;;8.02;4.57;;;;;;;;;;5228098;28;20064;-73
2022/06/27 11:54:09;;;;;;;14.25;5.38;;;;;;;;;;5228381;28;20045;-75
2022/06/27 11:56:41;;;;;;;12.00;5.40;;;;;;;;;;5244018;28;20026;-76
2022/06/27 11:59:14;;;;;;;10.48;4.72;;;;;;;;;;5229643;28;20021;-76
2022/06/27 12:01:51;;;;;;;5.47;3.75;;;;;;;;;;5230704;28;20025;-75
2022/06/27 12:04:26;;;;;;;8.85;4.25;;;;;;;;;;5230025;28;20017;-75
2022/06/27 12:07:03;;;;;;;7.70;4.95;;;;;;;;;;5242111;28;20056;-74
2022/06/27 12:09:51;;;;;;;5.97;4.32;;;;;;;;;;5230413;28;20030;-76
2022/06/27 12:12:25;;;;;;;7.85;4.50;;;;;;;;;;5245840;28;20539;-76
2022/06/27 12:14:57;;;;;;;;;;;;;;;;;;5245977;28;20018;-75
2022/06/27 12:17:37;;;;;;;9.66;4.62;;;;;;;;;;5233344;28;20368;-72
2022/06/27 12:20:09;;;;;;;9.73;4.40;;;;;;;;;;5230138;28;20021;-74
2022/06/27 12:22:40;;;;;;;7.88;3.42;;;;;;;;;;5230561;28;20025;-72
2022/06/27 12:25:11;;;;;;;6.80;3.65;;;;;;;;;;5244232;28;20216;-75
2022/06/27 12:27:42;;;;;;;4.84;2.90;;;;;;;;;;5226757;28;20079;-74
2022/06/27 12:30:14;;;;;;;6.10;3.40;;;;;;;;;;5244132;28;20009;-74
2022/06/27 12:32:45;;;;;;;6.53;3.00;;;;;;;;;;5231511;28;20098;-73
2022/06/27 12:35:17;;;;;;;6.57;2.90;;;;;;;;;;5229410;28;20032;-73
2022/06/27 12:37:48;;;;;;;5.20;2.44;;;;;;;;;;5226435;28;20044;-72
2022/06/27 12:40:19;;;;;;;7.03;2.27;;;;;;;;;;5231887;28;20043;-72
2022/06/27 12:42:50;;;;;;;6.83;3.03;;;;;;;;;;5227120;28;20022;-72
2022/06/27 12:45:21;;;;;;;9.03;2.80;;;;;;;;;;5228736;28;20056;-74
2022/06/27 12:47:52;;;;;;;6.37;2.50;;;;;;;;;;5225933;28;20017;-74
2022/06/27 12:50:24;;;;;;;5.37;2.00;;;;;;;;;;5242976;28;20017;-73
2022/06/27 12:52:55;;;;;;;8.00;2.63;;;;;;;;;;5228039;28;20116;-73
2022/06/27 12:55:26;;;;;;;12.53;3.70;;;;;;;;;;5230476;28;20064;-73
2022/06/27 12:57:57;;;;;;;7.80;3.70;;;;;;;;;;5231133;28;20040;-73
2022/06/27 13:00:28;;;;;;;9.40;4.30;;;;;;;;;;5229740;28;20108;-74
2022/06/27 13:03:00;;;;;;;8.80;3.63;;;;;;;;;;5243823;28;20530;-73
2022/06/27 13:05:31;;;;;;;7.23;3.40;;;;;;;;;;5228929;28;20075;-72
2022/06/27 13:08:03;;;;;;;7.60;3.77;;;;;;;;;;5239954;28;20040;-73
2022/06/27 13:10:34;;;;;;;6.83;3.13;;;;;;;;;;5228089;28;20032;-73
2022/06/27 13:13:06;;;;;;;6.77;3.93;;;;;;;;;;5228899;28;20559;-73
2022/06/27 13:15:37;;;;;;;7.40;4.00;;;;;;;;;;5227707;28;20543;-73
2022/06/27 13:18:09;;;;;;;6.80;3.60;;;;;;;;;;5225394;28;20480;-73
2022/06/27 13:20:40;;;;;;;8.33;4.33;;;;;;;;;;5227962;28;20028;-71
2022/06/27 13:23:12;;;;;;;6.27;3.70;;;;;;;;;;5227940;28;20029;-72
2022/06/27 13:25:44;;;;;;;8.70;3.47;;;;;;;;;;5226864;28;20075;-72
2022/06/27 13:28:15;;;;;;;8.10;3.30;;;;;;;;;;5222787;28;20113;-73
2022/06/27 13:30:47;;;;;;;4.93;2.80;;;;;;;;;;5227414;28;20124;-72
2022/06/27 13:33:18;;;;;;;9.73;4.03;;;;;;;;;;5225379;28;20071;-71
2022/06/27 13:35:49;;;;;;;4.66;2.82;;;;;;;;;;5237857;28;20040;-71
2022/06/27 13:38:20;;;;;;;9.80;2.13;;;;;;;;;;5235445;28;20033;-70
2022/06/27 13:40:52;;;;;;;7.13;2.40;;;;;;;;;;5213296;28;20021;-72
2022/06/27 13:43:24;;;;;;;4.87;2.27;;;;;;;;;;5198680;28;20436;-72
2022/06/27 13:45:55;;;;;;;6.23;2.37;;;;;;;;;;5197564;28;20021;-74
2022/06/27 13:48:26;;;;;;;7.43;2.33;;;;;;;;;;5207267;28;20597;-71
2022/06/27 13:50:57;;;;;;;4.10;1.90;;;;;;;;;;5202366;28;20120;-74
2022/06/27 13:53:28;;;;;;;6.97;2.73;;;;;;;;;;5221143;28;20021;-73
2022/06/27 13:56:00;;;;;;;4.23;1.83;;;;;;;;;;5197602;28;20041;-72
2022/06/27 13:58:33;;;;;;;4.70;1.90;;;;;;;;;;5206659;28;20037;-75
2022/06/27 14:01:04;;;;;;;3.90;1.48;;;;;;;;;;5200057;28;20029;-73
2022/06/27 14:03:36;;;;;;;5.40;2.43;;;;;;;;;;5198684;28;20479;-74
2022/06/27 14:08:57;;;;;;;5.33;2.37;;;;;;;;;;5202134;28;20422;-71
2022/06/27 14:11:28;;;;;;;3.83;2.10;;;;;;;;;;5177886;28;1062011;-72
2022/06/27 14:13:59;;;;;;;7.33;2.73;;;;;;;;;;5224184;28;20018;-72
2022/06/27 14:16:31;;;;;;;4.83;2.00;;;;;;;;;;5203377;28;20676;-72
2022/06/27 14:19:02;;;;;;;4.20;2.00;;;;;;;;;;5205732;28;20101;-73
2022/06/27 14:21:33;;;;;;;6.33;3.00;;;;;;;;;;5199612;28;20063;-73
2022/06/27 14:24:05;;;;;;;6.77;2.30;;;;;;;;;;5214730;28;20037;-74
2022/06/27 14:26:36;;;;;;;7.07;2.67;;;;;;;;;;5198157;28;20037;-73
2022/06/27 14:29:08;;;;;;;5.23;2.67;;;;;;;;;;5201068;28;20110;-74
2022/06/27 14:31:39;;;;;;;5.90;2.77;;;;;;;;;;5202254;28;20048;-72
2022/06/27 14:34:10;;;;;;;7.37;2.50;;;;;;;;;;5200545;28;20022;-73
2022/06/27 14:36:41;;;;;;;6.93;2.50;;;;;;;;;;5207066;28;20092;-72
2022/06/27 14:39:13;;;;;;;7.60;2.87;;;;;;;;;;5198116;28;20648;-73
2022/06/27 14:41:46;;;;;;;3.73;2.27;;;;;;;;;;5199642;28;20061;-73
2022/06/27 14:44:18;;;;;;;6.10;2.40;;;;;;;;;;5198425;28;20029;-74
2022/06/27 14:46:50;;;;;;;9.23;2.27;;;;;;;;;;5208387;28;20042;-73
2022/06/27 14:49:21;;;;;;;4.17;2.17;;;;;;;;;;5213020;28;20021;-72
2022/06/27 14:51:53;;;;;;;8.40;2.27;;;;;;;;;;5204434;28;21318;-71
2022/06/27 14:54:24;;;;;;;6.03;3.47;;;;;;;;;;5203516;28;20046;-72
2022/06/27 14:56:56;;;;;;;5.10;2.20;;;;;;;;;;5196938;28;20037;-72
2022/06/27 14:59:28;;;;;;;5.60;1.60;;;;;;;;;;5203923;28;20084;-75
2022/06/27 15:01:59;;;;;;;5.23;1.80;;;;;;;;;;5206039;28;20588;-74
2022/06/27 15:04:30;;;;;;;3.43;1.90;;;;;;;;;;5206930;28;20032;-71
2022/06/27 15:07:01;;;;;;;6.00;2.20;;;;;;;;;;5197106;28;20026;-72
2022/06/27 15:09:33;;;;;;;4.27;2.07;;;;;;;;;;5212713;28;20018;-72
2022/06/27 15:12:04;;;;;;;3.43;2.07;;;;;;;;;;5202493;28;20065;-73